Time;durP1;ratioP1;P1;durP2;ratioP2;P2;SDS_P1;SDS_P2;PMS_P1;PMS_P2;Temp;Humidity;BMP_temperature;BMP_pressure;BME280_temperature;BME280_humidity;BME280_pressure;Samples;Min_cycle;Max_cycle;Signal;HPM_P1;HPM_P2
2022/11/12 00:00:31;;;;;;;;;;;;;;;9.86;85.55;100391.47;4890171;29;1759;-79
2022/11/12 00:02:57;;;;;;;;;;;;;;;9.87;85.64;100382.34;4882189;29;1904;-78
2022/11/12 00:05:24;;;;;;;;;;;;;;;9.85;85.36;100382.56;4881480;29;2033;-80
2022/11/12 00:07:50;;;;;;;;;;;;;;;9.87;85.60;100390.41;4883222;29;2012;-77
2022/11/12 00:10:17;;;;;;;;;;;;;;;9.87;85.56;100383.16;4892721;29;1797;-80
2022/11/12 00:12:43;;;;;;;;;;;;;;;9.87;85.53;100387.72;4886160;29;1988;-80
2022/11/12 00:15:10;;;;;;;;;;;;;;;9.87;85.58;100396.63;4870837;29;1974;-77
2022/11/12 00:17:36;;;;;;;;;;;;;;;9.87;85.79;100399.31;4868455;29;2471;-78
2022/11/12 00:20:03;;;;;;;;;;;;;;;9.88;85.83;100402.81;4870130;29;1880;-77
2022/11/12 00:22:30;;;;;;;;;;;;;;;9.87;85.72;100412.75;4884385;29;1758;-78
2022/11/12 00:24:56;;;;;;;;;;;;;;;9.87;85.65;100402.00;4889696;29;2116;-78
2022/11/12 00:27:23;;;;;;;;;;;;;;;9.87;85.63;100407.38;4856109;29;2074;-79
2022/11/12 00:29:49;;;;;;;;;;;;;;;9.87;85.73;100407.38;4868294;29;1893;-80
2022/11/12 00:32:16;;;;;;;;;;;;;;;9.87;85.70;100409.25;4863821;29;1911;-80
2022/11/12 00:34:42;;;;;;;;;;;;;;;9.88;85.57;100402.81;4861164;29;2105;-79
2022/11/12 00:37:09;;;;;;;;;;;;;;;9.88;85.78;100405.50;4864263;29;1770;-80
2022/11/12 00:39:35;;;;;;;;;;;;;;;9.87;85.71;100399.31;4862734;29;1917;-79
2022/11/12 00:42:02;;;;;;;;;;;;;;;9.88;85.81;100408.19;4868936;29;1782;-79
2022/11/12 00:44:29;;;;;;;;;;;;;;;9.89;85.66;100416.06;4860668;29;1994;-79
2022/11/12 00:46:55;;;;;;;;;;;;;;;9.88;85.67;100427.03;4861141;29;1967;-79
2022/11/12 00:49:22;;;;;;;;;;;;;;;9.89;85.64;100426.81;4862963;29;1873;-78
2022/11/12 00:51:49;;;;;;;;;;;;;;;9.89;85.66;100434.06;4863543;29;1974;-79
2022/11/12 00:54:15;;;;;;;;;;;;;;;9.89;85.60;100436.78;4861140;29;1728;-79
2022/11/12 00:56:42;;;;;;;;;;;;;;;9.90;85.92;100424.94;4866570;29;2098;-80
2022/11/12 00:59:08;;;;;;;;;;;;;;;9.89;85.90;100434.06;4862961;29;1789;-78
2022/11/12 01:01:35;;;;;;;;;;;;;;;9.90;85.84;100441.09;4865097;29;2061;-76
2022/11/12 01:04:01;;;;;;;;;;;;;;;9.90;85.74;100443.78;4862639;29;2212;-77
2022/11/12 01:06:28;;;;;;;;;;;;;;;9.90;85.73;100435.72;4864713;29;1850;-78
2022/11/12 01:08:54;;;;;;;;;;;;;;;9.90;85.70;100449.16;4863898;29;1739;-78
2022/11/12 01:11:21;;;;;;;;;;;;;;;9.89;85.70;100448.34;4869787;29;2083;-78
2022/11/12 01:13:47;;;;;;;;;;;;;;;9.90;85.72;100443.78;4862983;29;2142;-78
2022/11/12 01:16:14;;;;;;;;;;;;;;;9.90;85.72;100452.66;4862582;29;1955;-78
2022/11/12 01:18:40;;;;;;;;;;;;;;;9.89;85.73;100448.34;4860468;29;1892;-78
2022/11/12 01:21:07;;;;;;;;;;;;;;;9.90;85.72;100454.53;4862204;29;1799;-78
2022/11/12 01:23:34;;;;;;;;;;;;;;;9.90;85.66;100459.94;4862891;29;2106;-78
2022/11/12 01:26:00;;;;;;;;;;;;;;;9.90;85.89;100463.44;4863795;29;1796;-78
2022/11/12 01:28:27;;;;;;;;;;;;;;;9.89;85.71;100463.66;4886649;29;1827;-78
2022/11/12 01:30:53;;;;;;;;;;;;;;;9.91;85.91;100473.19;4880531;29;1758;-79
2022/11/12 01:33:20;;;;;;;;;;;;;;;9.89;85.71;100475.25;4881104;29;2100;-77
2022/11/12 01:35:46;;;;;;;;;;;;;;;9.90;85.67;100474.19;4880018;29;2005;-77
2022/11/12 01:38:13;;;;;;;;;;;;;;;9.91;85.62;100485.78;4879375;29;1835;-76
2022/11/12 01:40:39;;;;;;;;;;;;;;;9.91;85.50;100483.09;4895221;29;1770;-78
2022/11/12 01:43:06;;;;;;;;;;;;;;;9.91;85.74;100488.47;4884691;29;1778;-80
2022/11/12 01:45:32;;;;;;;;;;;;;;;9.91;85.68;100510.84;4886766;29;1760;-79
2022/11/12 01:47:59;;;;;;;;;;;;;;;9.91;85.57;100502.78;4863293;29;1951;-79
2022/11/12 01:50:25;;;;;;;;;;;;;;;9.92;85.65;100508.97;4880229;29;1765;-80
2022/11/12 01:52:52;;;;;;;;;;;;;;;9.92;86.02;100523.25;4863362;29;2644;-79
2022/11/12 01:55:19;;;;;;;;;;;;;;;9.92;85.87;100511.66;4862979;29;1970;-79
2022/11/12 01:57:45;;;;;;;;;;;;;;;9.92;85.96;100517.03;4886831;29;3746;-79
2022/11/12 02:00:12;;;;;;;;;;;;;;;9.91;85.82;100526.97;4883160;29;3484;-79
2022/11/12 02:02:38;;;;;;;;;;;;;;;9.92;85.67;100522.41;4897927;29;1737;-79
2022/11/12 02:05:05;;;;;;;;;;;;;;;9.91;85.72;100535.06;4894795;29;3168;-79
2022/11/12 02:07:31;;;;;;;;;;;;;;;9.93;85.33;100532.13;4880376;29;2102;-79
2022/11/12 02:09:58;;;;;;;;;;;;;;;9.92;85.55;100527.81;4868060;29;1715;-79
2022/11/12 02:15:08;;;;;;;;;;;;;;;9.91;85.61;100535.06;4881982;29;2541;-78
2022/11/12 02:17:35;;;;;;;;;;;;;;;9.92;85.48;100536.69;4866419;29;1719;-79
2022/11/12 02:20:01;;;;;;;;;;;;;;;9.93;85.58;100540.19;4867623;29;1840;-78
2022/11/12 02:22:28;;;;;;;;;;;;;;;9.93;85.65;100553.66;4894971;29;1918;-79
2022/11/12 02:24:55;;;;;;;;;;;;;;;9.93;85.73;100542.88;4893309;29;1953;-79
2022/11/12 02:27:21;;;;;;;;;;;;;;;9.93;85.57;100548.28;4869908;29;1837;-80
2022/11/12 02:29:48;;;;;;;;;;;;;;;9.92;85.67;100550.13;4889386;29;1893;-79
2022/11/12 02:32:14;;;;;;;;;;;;;;;9.92;85.31;100555.53;4893973;29;1981;-80
2022/11/12 02:34:41;;;;;;;;;;;;;;;9.92;85.61;100555.53;4881204;29;2122;-78
2022/11/12 02:37:07;;;;;;;;;;;;;;;9.93;85.51;100561.72;4881025;29;1724;-80
2022/11/12 02:39:34;;;;;;;;;;;;;;;9.93;85.65;100572.47;4878319;29;1918;-79
2022/11/12 02:42:00;;;;;;;;;;;;;;;9.92;85.78;100587.81;4862266;29;2005;-79
2022/11/12 02:44:27;;;;;;;;;;;;;;;9.92;85.52;100603.94;4880734;29;2006;-79
2022/11/12 02:46:53;;;;;;;;;;;;;;;9.92;85.30;100601.25;4887573;29;1735;-79
2022/11/12 02:49:20;;;;;;;;;;;;;;;9.93;85.51;100615.53;4861139;29;1735;-78
2022/11/12 02:51:46;;;;;;;;;;;;;;;9.92;85.52;100628.16;4879774;29;1911;-79
2022/11/12 02:54:13;;;;;;;;;;;;;;;9.93;85.55;100629.81;4876496;29;2060;-79
2022/11/12 02:56:40;;;;;;;;;;;;;;;9.93;85.31;100631.66;4876854;29;1767;-78
2022/11/12 02:59:06;;;;;;;;;;;;;;;9.93;85.40;100631.66;4878692;29;1806;-79
2022/11/12 03:01:33;;;;;;;;;;;;;;;9.93;85.53;100639.75;4882989;29;1734;-79
2022/11/12 03:03:59;;;;;;;;;;;;;;;9.93;85.31;100637.88;4864244;29;1960;-79
2022/11/12 03:06:26;;;;;;;;;;;;;;;9.93;85.52;100643.25;4880422;29;1861;-78
2022/11/12 03:08:52;;;;;;;;;;;;;;;9.94;85.42;100652.16;4878629;29;2207;-79
2022/11/12 03:11:19;;;;;;;;;;;;;;;9.93;85.42;100655.88;4883412;29;1786;-78
2022/11/12 03:13:45;;;;;;;;;;;;;;;9.93;85.28;100654.00;4882049;29;2076;-78
2022/11/12 03:16:12;;;;;;;;;;;;;;;9.93;85.33;100662.09;4888891;29;1782;-79
2022/11/12 03:18:38;;;;;;;;;;;;;;;9.93;85.40;100664.78;4884579;29;1758;-79
2022/11/12 03:21:05;;;;;;;;;;;;;;;9.93;85.32;100682.78;4895213;29;1779;-79
2022/11/12 03:23:31;;;;;;;;;;;;;;;9.93;85.37;100689.00;4866957;29;2080;-79
2022/11/12 03:25:58;;;;;;;;;;;;;;;9.94;85.51;100692.50;4882289;29;1743;-79
2022/11/12 03:28:25;;;;;;;;;;;;;;;9.93;85.21;100697.06;4883488;29;2053;-79
2022/11/12 03:30:51;;;;;;;;;;;;;;;9.94;85.22;100700.56;4888360;29;1762;-79
2022/11/12 03:33:18;;;;;;;;;;;;;;;9.93;85.56;100713.19;4882750;29;1981;-80
2022/11/12 03:35:44;;;;;;;;;;;;;;;9.94;85.46;100730.16;4886403;29;1784;-79
2022/11/12 03:38:11;;;;;;;;;;;;;;;9.94;85.55;100746.31;4885840;29;1807;-80
2022/11/12 03:40:37;;;;;;;;;;;;;;;9.93;85.55;100750.88;4886038;29;1956;-79
2022/11/12 03:43:04;;;;;;;;;;;;;;;9.93;85.80;100758.13;4889125;29;1831;-79
2022/11/12 03:45:31;;;;;;;;;;;;;;;9.93;85.58;100763.50;4880435;29;2048;-78
2022/11/12 03:47:57;;;;;;;;;;;;;;;9.93;85.46;100760.81;4885435;29;1805;-80
2022/11/12 03:50:24;;;;;;;;;;;;;;;9.94;85.42;100767.84;4883079;29;1929;-79
2022/11/12 03:52:50;;;;;;;;;;;;;;;9.93;85.49;100769.72;4885609;29;2014;-79
2022/11/12 03:55:17;;;;;;;;;;;;;;;9.92;85.35;100778.81;4882792;29;2119;-79
2022/11/12 03:57:43;;;;;;;;;;;;;;;9.95;85.35;100788.34;4872731;29;1831;-80
2022/11/12 04:00:10;;;;;;;;;;;;;;;9.93;85.33;100788.53;4885190;29;1841;-77
2022/11/12 04:02:36;;;;;;;;;;;;;;;9.93;85.17;100796.63;4890537;29;2096;-78
2022/11/12 04:10:32;;;;;;;;;;;;;;;9.93;85.40;100809.25;4884343;29;2718;-77
2022/11/12 04:13:27;;;;;;;;;;;;;;;9.93;85.29;100815.44;4880167;29;1907;-79
2022/11/12 04:24:03;;;;;;;;;;;;;;;9.93;85.33;100841.53;4886535;29;1800;-78
2022/11/12 04:26:29;;;;;;;;;;;;;;;9.93;85.08;100831.59;4880850;29;1813;-78
2022/11/12 04:31:38;;;;;;;;;;;;;;;9.94;85.33;100843.16;4841100;29;2193;-80
2022/11/12 04:36:46;;;;;;;;;;;;;;;9.93;85.35;100857.66;4882648;29;1835;-78
2022/11/12 04:39:12;;;;;;;;;;;;;;;9.93;85.61;100863.06;4868098;29;1853;-79
2022/11/12 04:47:07;;;;;;;;;;;;;;;9.92;85.47;100869.47;4885560;29;2639;-80
2022/11/12 04:49:34;;;;;;;;;;;;;;;9.93;85.56;100881.88;4862584;29;1971;-77
2022/11/12 04:52:06;;;;;;;;;;;;;;;9.92;85.32;100882.94;4875506;29;1732;-78
2022/11/12 04:54:33;;;;;;;;;;;;;;;9.92;85.33;100889.13;4890810;29;1814;-78
2022/11/12 04:57:00;;;;;;;;;;;;;;;9.92;85.26;100893.69;4876359;29;1832;-77
2022/11/12 04:59:26;;;;;;;;;;;;;;;9.93;85.25;100911.47;4879518;29;2079;-80
2022/11/12 05:01:53;;;;;;;;;;;;;;;9.93;85.35;100922.25;4860870;29;1699;-77
2022/11/12 05:04:19;;;;;;;;;;;;;;;9.93;85.29;100938.38;4881177;29;1728;-79
2022/11/12 05:06:52;;;;;;;;;;;;;;;9.92;85.23;100940.25;4893024;29;1714;-77
2022/11/12 05:09:18;;;;;;;;;;;;;;;9.93;85.41;100949.16;4857702;29;1896;-80
2022/11/12 05:11:45;;;;;;;;;;;;;;;9.93;85.31;100962.59;4875402;29;1952;-78
2022/11/12 05:14:11;;;;;;;;;;;;;;;9.92;85.46;100959.09;4889917;29;1917;-78
2022/11/12 05:16:38;;;;;;;;;;;;;;;9.92;85.09;100958.28;4877561;29;1844;-78
2022/11/12 05:19:04;;;;;;;;;;;;;;;9.92;85.14;100961.78;4886137;29;2022;-78
2022/11/12 05:24:17;;;;;;;;;;;;;;;9.92;85.05;100959.09;4854566;29;1860;-78
2022/11/12 05:26:44;;;;;;;;;;;;;;;9.92;85.28;100964.47;4880318;29;1961;-79
2022/11/12 05:29:11;;;;;;;;;;;;;;;9.92;85.15;100977.94;4861550;29;1869;-78
2022/11/12 05:31:37;;;;;;;;;;;;;;;9.92;85.08;100991.38;4863474;29;2060;-77
2022/11/12 05:34:04;;;;;;;;;;;;;;;9.93;85.40;101013.72;4870826;29;1983;-77
2022/11/12 05:36:30;;;;;;;;;;;;;;;9.92;85.25;101037.13;4880137;29;2032;-77
2022/11/12 05:38:57;;;;;;;;;;;;;;;9.93;85.45;101040.63;4878830;29;2006;-77
2022/11/12 05:41:23;;;;;;;;;;;;;;;9.92;85.56;101038.97;4894305;29;1686;-77
2022/11/12 05:43:50;;;;;;;;;;;;;;;9.92;85.43;101049.75;4879547;29;2004;-78
2022/11/12 05:46:16;;;;;;;;;;;;;;;9.92;85.20;101047.06;4888572;29;1742;-80
2022/11/12 05:48:43;;;;;;;;;;;;;;;9.91;85.39;101051.63;4887633;29;1700;-78
2022/11/12 05:51:09;;;;;;;;;;;;;;;9.90;85.31;101057.19;4869399;29;1745;-76
2022/11/12 05:53:36;;;;;;;;;;;;;;;9.91;85.33;101058.81;4885562;29;1908;-78
2022/11/12 05:56:02;;;;;;;;;;;;;;;9.90;85.43;101059.88;4910522;29;1548;-79
2022/11/12 05:58:30;;;;;;;;;;;;;;;9.90;85.40;101073.31;4908897;29;1524;-77
2022/11/12 06:00:56;;;;;;;;;;;;;;;9.89;85.41;101075.19;4899901;29;1911;-80
2022/11/12 06:03:23;;;;;;;;;;;;;;;9.90;85.38;101079.53;4881067;29;1633;-79
2022/11/12 06:05:49;;;;;;;;;;;;;;;9.89;85.38;101091.34;4909515;29;1593;-80
2022/11/12 06:08:23;;;;;;;;;;;;;;;9.89;85.65;101101.28;4882109;29;1241;-78
2022/11/12 06:10:49;;;;;;;;;;;;;;;9.89;85.51;101104.78;4877411;29;1998;-78
2022/11/12 06:13:16;;;;;;;;;;;;;;;9.89;85.49;101098.59;4900978;29;2830;-76
2022/11/12 06:15:43;;;;;;;;;;;;;;;9.88;85.54;101094.22;4899455;29;1227;-76
2022/11/12 06:18:12;;;;;;;;;;;;;;;9.88;85.36;101100.44;4892569;29;1553;-78
2022/11/12 06:20:39;;;;;;;;;;;;;;;9.87;85.43;101098.78;4900199;29;2038;-77
2022/11/12 06:23:07;;;;;;;;;;;;;;;9.89;85.44;101109.34;4899794;29;1182;-77
2022/11/12 06:25:33;;;;;;;;;;;;;;;9.88;85.62;101119.28;4916876;29;1814;-77
2022/11/12 06:27:59;;;;;;;;;;;;;;;9.88;85.33;101121.97;4900941;29;1946;-78
2022/11/12 06:33:13;;;;;;;;;;;;;;;9.88;85.60;101139.94;5226051;23;4649;-78
2022/11/12 06:35:40;;;;;;;;;;;;;;;9.87;85.52;101147.19;4870910;29;4769;-78
2022/11/12 06:38:06;;;;;;;;;;;;;;;9.88;85.49;101161.47;4868706;29;3744;-79
2022/11/12 06:40:33;;;;;;;;;;;;;;;9.88;85.51;101174.94;4866956;29;2456;-79
2022/11/12 06:42:59;;;;;;;;;;;;;;;9.88;85.41;101186.53;4880196;29;1847;-79
2022/11/12 06:45:26;;;;;;;;;;;;;;;9.88;85.49;101196.44;4880231;29;1795;-78
2022/11/12 06:47:52;;;;;;;;;;;;;;;9.88;85.41;101204.53;4880008;29;1360;-79
2022/11/12 06:50:19;;;;;;;;;;;;;;;9.87;85.69;101216.31;4880467;29;1105;-79
2022/11/12 06:52:45;;;;;;;;;;;;;;;9.86;85.49;101217.38;4863247;29;2604;-80
2022/11/12 06:55:12;;;;;;;;;;;;;;;9.85;85.38;101224.59;4863662;29;2189;-79
2022/11/12 06:57:41;;;;;;;;;;;;;;;9.86;85.55;101239.72;4880357;29;1744;-79
2022/11/12 07:00:08;;;;;;;;;;;;;;;9.87;85.69;101256.69;4863637;29;2154;-78
2022/11/12 07:02:35;;;;;;;;;;;;;;;9.84;85.49;101260.59;4877299;29;2074;-78
2022/11/12 07:05:01;;;;;;;;;;;;;;;9.85;85.49;101264.94;4879873;29;1712;-80
2022/11/12 07:07:28;;;;;;;;;;;;;;;9.85;85.46;101270.31;4877198;29;5067;-79
2022/11/12 07:09:56;;;;;;;;;;;;;;;9.84;85.69;101273.22;4875296;29;4524;-79
2022/11/12 07:12:23;;;;;;;;;;;;;;;9.84;85.46;101284.81;4864587;29;2126;-79
2022/11/12 07:14:51;;;;;;;;;;;;;;;9.84;85.42;101286.69;4869294;29;4673;-79
2022/11/12 07:20:09;;;;;;;;;;;;;;;9.83;85.65;101301.16;4879568;29;5067;-78
2022/11/12 07:22:36;;;;;;;;;;;;;;;9.83;85.24;101301.16;4862701;29;4071;-78
2022/11/12 07:25:03;;;;;;;;;;;;;;;9.82;85.25;101304.88;4885447;29;1644;-78
2022/11/12 07:27:30;;;;;;;;;;;;;;;9.83;85.28;101309.25;4883231;29;1983;-78
2022/11/12 07:29:57;;;;;;;;;;;;;;;9.82;85.17;101316.44;4887826;29;1792;-77
2022/11/12 07:32:31;;;;;;;;;;;;;;;9.82;84.95;101326.38;4856279;29;1819;-80
2022/11/12 07:34:58;;;;;;;;;;;;;;;9.82;85.14;101319.16;4872313;29;4028;-79
2022/11/12 07:37:24;;;;;;;;;;;;;;;9.82;85.04;101329.06;4875941;29;1920;-78
2022/11/12 07:39:51;;;;;;;;;;;;;;;9.82;85.33;101339.84;4860495;29;1719;-79
2022/11/12 07:42:17;;;;;;;;;;;;;;;9.80;85.02;101348.13;4860840;29;2126;-80
2022/11/12 07:44:44;;;;;;;;;;;;;;;9.81;85.02;101351.63;4843269;29;1497;-77
2022/11/12 07:47:10;;;;;;;;;;;;;;;9.81;85.19;101362.41;4854379;29;6144;-78
2022/11/12 07:49:37;;;;;;;;;;;;;;;9.81;85.14;101373.16;4867221;29;4098;-78
2022/11/12 07:52:04;;;;;;;;;;;;;;;9.78;85.04;101375.22;4865921;29;4193;-78
2022/11/12 07:54:30;;;;;;;;;;;;;;;9.80;84.86;101379.59;4868774;29;1910;-77
2022/11/12 07:56:57;;;;;;;;;;;;;;;9.80;85.04;101382.28;4868238;29;1923;-79
2022/11/12 07:59:23;;;;;;;;;;;;;;;9.78;85.22;101387.81;4870560;29;2004;-78
2022/11/12 08:01:50;;;;;;;;;;;;;;;9.77;85.03;101389.69;4872002;29;2957;-79
2022/11/12 08:04:16;;;;;;;;;;;;;;;9.78;85.05;101401.28;4870469;29;2399;-79
2022/11/12 08:06:43;;;;;;;;;;;;;;;9.78;84.91;101414.72;4853377;29;1713;-78
2022/11/12 08:09:10;;;;;;;;;;;;;;;9.77;85.02;101413.91;4870558;29;2057;-78
2022/11/12 08:11:36;;;;;;;;;;;;;;;9.79;85.14;101427.16;4876189;29;1733;-78
2022/11/12 08:14:05;;;;;;;;;;;;;;;9.78;84.92;101431.69;4879177;29;1988;-79
2022/11/12 08:16:31;;;;;;;;;;;;;;;9.77;85.02;101432.75;4862471;29;1655;-79
2022/11/12 08:18:58;;;;;;;;;;;;;;;9.77;84.85;101432.75;4863599;29;1927;-78
2022/11/12 08:21:25;;;;;;;;;;;;;;;9.77;84.99;101437.28;4838901;29;5297;-79
2022/11/12 08:23:51;;;;;;;;;;;;;;;9.76;84.91;101449.91;4862673;29;3806;-76
2022/11/12 08:26:22;;;;;;;;;;;;;;;9.77;84.96;101448.06;4845706;29;1567;-78
2022/11/12 08:28:48;;;;;;;;;;;;;;;9.76;85.04;101457.97;4866579;29;2071;-80
2022/11/12 08:31:15;;;;;;;;;;;;;;;9.75;85.12;101456.31;4883344;29;1797;-80
2022/11/12 08:33:41;;;;;;;;;;;;;;;9.77;84.87;101474.94;4880893;29;1943;-77
2022/11/12 08:36:08;;;;;;;;;;;;;;;9.76;84.78;101474.13;4870186;29;1636;-78
2022/11/12 08:38:34;;;;;;;;;;;;;;;9.76;85.04;101478.66;4866140;29;3562;-78
2022/11/12 08:41:01;;;;;;;;;;;;;;;9.76;84.97;101475.97;4869007;29;2641;-77
2022/11/12 08:43:27;;;;;;;;;;;;;;;9.75;84.97;101485.88;4853158;29;2593;-78
2022/11/12 08:45:54;;;;;;;;;;;;;;;9.76;84.96;101484.03;4873758;29;1571;-77
2022/11/12 08:48:20;;;;;;;;;;;;;;;9.76;84.96;101482.19;4866612;29;1735;-79
2022/11/12 08:50:47;;;;;;;;;;;;;;;9.75;84.92;101483.19;4865566;29;1522;-77
2022/11/12 08:53:13;;;;;;;;;;;;;;;9.75;84.91;101485.88;4865819;29;2126;-80
2022/11/12 08:55:40;;;;;;;;;;;;;;;9.75;84.94;101502.03;4865952;29;1771;-80
2022/11/12 08:58:09;;;;;;;;;;;;;;;9.75;84.65;101504.72;4864303;29;1951;-80
2022/11/12 09:00:35;;;;;;;;;;;;;;;9.75;84.63;101509.28;4864564;29;1847;-78
2022/11/12 09:03:02;;;;;;;;;;;;;;;9.74;84.79;101515.69;4864376;29;1824;-78
2022/11/12 09:05:28;;;;;;;;;;;;;;;9.74;84.77;101529.97;4848719;29;1536;-78
2022/11/12 09:07:55;;;;;;;;;;;;;;;9.74;84.76;101526.44;4849138;29;2004;-79
2022/11/12 09:10:23;;;;;;;;;;;;;;;9.74;84.64;101531.84;4862312;29;1520;-80
2022/11/12 09:12:49;;;;;;;;;;;;;;;9.73;84.62;101527.47;4865017;29;1666;-78
2022/11/12 09:15:16;;;;;;;;;;;;;;;9.74;84.78;101529.97;4848985;29;1984;-80
2022/11/12 09:17:43;;;;;;;;;;;;;;;9.74;84.82;101529.13;4865038;29;1829;-80
2022/11/12 09:20:10;;;;;;;;;;;;;;;9.74;84.85;101537.22;4869136;29;1509;-77
2022/11/12 09:22:36;;;;;;;;;;;;;;;9.74;85.01;101539.91;4863281;29;1472;-78
2022/11/12 09:25:03;;;;;;;;;;;;;;;9.74;84.83;101539.91;4861922;29;1488;-79
2022/11/12 09:27:29;;;;;;;;;;;;;;;9.73;85.05;101547.13;4848870;29;2052;-77
2022/11/12 09:29:56;;;;;;;;;;;;;;;9.73;85.01;101557.88;4863409;29;1458;-79
2022/11/12 09:32:22;;;;;;;;;;;;;;;9.73;84.84;101557.88;4870324;29;1611;-78
2022/11/12 09:34:49;;;;;;;;;;;;;;;9.73;85.08;101560.56;4876843;29;5006;-79
2022/11/12 09:37:15;;;;;;;;;;;;;;;9.73;84.95;101563.25;4863298;29;4254;-77
2022/11/12 09:39:42;;;;;;;;;;;;;;;9.73;84.90;101568.63;4882828;29;1530;-77
2022/11/12 09:42:08;;;;;;;;;;;;;;;9.73;84.98;101568.63;4879001;29;4635;-77
2022/11/12 09:44:35;;;;;;;;;;;;;;;9.74;85.09;101573.00;4867883;29;1506;-78
2022/11/12 09:47:02;;;;;;;;;;;;;;;9.73;85.05;101587.47;4867567;29;2100;-79
2022/11/12 09:49:28;;;;;;;;;;;;;;;9.74;84.98;101589.16;4885300;29;2011;-77
2022/11/12 09:51:55;;;;;;;;;;;;;;;9.74;85.12;101588.31;4875747;29;3165;-78
2022/11/12 09:54:21;;;;;;;;;;;;;;;9.74;84.98;101594.53;4883567;29;2637;-79
2022/11/12 09:56:48;;;;;;;;;;;;;;;9.75;84.99;101598.06;4868917;29;2128;-77
2022/11/12 09:59:14;;;;;;;;;;;;;;;9.76;85.09;101599.72;4850555;29;1572;-79
2022/11/12 10:01:41;;;;;;;;;;;;;;;9.75;85.13;101600.75;4869268;29;1842;-78
2022/11/12 10:04:07;;;;;;;;;;;;;;;9.75;84.90;101601.56;4869173;29;1846;-77
2022/11/12 10:06:34;;;;;;;;;;;;;;;9.75;84.98;101604.25;4865038;29;1916;-79
2022/11/12 10:09:00;;;;;;;;;;;;;;;9.75;85.04;101615.03;4844967;29;1926;-79
2022/11/12 10:11:27;;;;;;;;;;;;;;;9.75;84.76;101619.56;4865056;29;1852;-79
2022/11/12 10:13:53;;;;;;;;;;;;;;;9.76;84.75;101618.53;4863498;29;1919;-78
2022/11/12 10:19:04;;;;;;;;;;;;;;;9.77;85.01;101609.47;4866810;29;1555;-79
2022/11/12 10:21:31;;;;;;;;;;;;;;;9.77;85.06;101609.47;4865495;29;1641;-79
2022/11/12 10:23:57;;;;;;;;;;;;;;;9.78;84.78;101616.50;4865735;29;1630;-77
2022/11/12 10:26:24;;;;;;;;;;;;;;;9.78;84.80;101614.66;4862930;29;1909;-79
2022/11/12 10:28:50;;;;;;;;;;;;;;;9.78;84.85;101614.66;4865003;29;2317;-78
2022/11/12 10:31:17;;;;;;;;;;;;;;;9.80;84.82;101616.34;4864338;29;1590;-78
2022/11/12 10:33:43;;;;;;;;;;;;;;;9.80;84.88;101617.16;4848824;29;1919;-79
2022/11/12 10:36:10;;;;;;;;;;;;;;;9.80;85.03;101624.41;4866690;29;2042;-79
2022/11/12 10:38:36;;;;;;;;;;;;;;;9.80;85.01;101627.09;4865065;29;1551;-79
2022/11/12 10:41:04;;;;;;;;;;;;;;;9.80;84.84;101636.00;4867588;29;1884;-78
2022/11/12 10:43:30;;;;;;;;;;;;;;;9.81;84.80;101643.03;4861326;29;4963;-79
2022/11/12 10:45:57;;;;;;;;;;;;;;;9.82;84.97;101649.25;4867814;29;1749;-79
2022/11/12 10:48:23;;;;;;;;;;;;;;;9.83;84.83;101648.25;4863638;29;4547;-78
2022/11/12 10:50:50;;;;;;;;;;;;;;;10.40;81.60;101650.16;4867610;29;1709;-79
2022/11/12 10:53:17;;;;;;;;;;;;;;;10.19;82.54;101649.06;4865071;29;1774;-78
2022/11/12 10:55:43;;;;;;;;;;;;;;;10.02;83.11;101653.00;4849732;29;1923;-79
2022/11/12 10:58:10;;;;;;;;;;;;;;;9.94;83.10;101645.91;4849560;29;1662;-79
2022/11/12 11:00:36;;;;;;;;;;;;;;;9.92;83.68;101649.81;4867931;29;3601;-80
2022/11/12 11:03:03;;;;;;;;;;;;;;;9.91;83.74;101648.13;4848324;29;1659;-80
2022/11/12 11:05:29;;;;;;;;;;;;;;;9.90;83.82;101647.28;4865053;29;1896;-79
2022/11/12 11:07:56;;;;;;;;;;;;;;;9.90;84.17;101651.84;4865466;29;3647;-79
2022/11/12 11:10:22;;;;;;;;;;;;;;;9.90;83.94;101655.34;4864785;29;3251;-79
2022/11/12 11:12:49;;;;;;;;;;;;;;;9.90;84.07;101651.84;4857500;29;1849;-78
2022/11/12 11:15:15;;;;;;;;;;;;;;;9.90;84.04;101660.75;4870000;29;3243;-80
2022/11/12 11:17:42;;;;;;;;;;;;;;;9.91;84.10;101667.81;4855253;29;2004;-78
2022/11/12 11:20:08;;;;;;;;;;;;;;;9.91;84.26;101670.50;4876592;29;1738;-78
2022/11/12 11:22:35;;;;;;;;;;;;;;;9.92;84.21;101668.63;4857155;29;2141;-78
2022/11/12 11:25:01;;;;;;;;;;;;;;;9.92;84.16;101664.09;4890212;29;1033;-78
2022/11/12 11:27:28;;;;;;;;;;;;;;;9.93;84.06;101665.75;4890973;29;3265;-78
2022/11/12 11:29:54;;;;;;;;;;;;;;;9.93;84.27;101673.81;4878234;29;1803;-78
2022/11/12 11:32:21;;;;;;;;;;;;;;;9.94;84.29;101675.50;4866484;29;2025;-80
2022/11/12 11:34:47;;;;;;;;;;;;;;;9.94;84.33;101677.34;4872677;29;1966;-78
2022/11/12 11:37:14;;;;;;;;;;;;;;;9.94;84.05;101680.88;4890771;29;1725;-79
2022/11/12 11:39:40;;;;;;;;;;;;;;;9.95;84.08;101684.41;4889015;29;1827;-79
2022/11/12 11:42:07;;;;;;;;;;;;;;;9.96;84.30;101688.75;4877072;29;1898;-77
2022/11/12 11:44:34;;;;;;;;;;;;;;;9.96;84.16;101691.44;4883356;29;1643;-77
2022/11/12 11:47:00;;;;;;;;;;;;;;;9.97;84.33;101688.59;4890684;29;1425;-78
2022/11/12 11:49:27;;;;;;;;;;;;;;;9.98;84.14;101697.50;4887991;29;1790;-80
2022/11/12 11:51:53;;;;;;;;;;;;;;;9.98;84.38;101698.31;4866605;29;2056;-80
2022/11/12 11:54:21;;;;;;;;;;;;;;;9.98;84.37;101698.31;4870899;29;1907;-79
2022/11/12 11:56:48;;;;;;;;;;;;;;;9.99;84.56;101705.34;4884335;29;1723;-79
2022/11/12 11:59:14;;;;;;;;;;;;;;;10.00;84.31;101711.59;4883483;29;1542;-80
2022/11/12 12:01:42;;;;;;;;;;;;;;;8.71;84.05;101508.59;4898587;29;1888;-79
2022/11/12 12:04:11;;;;;;;;;;;;;;;10.01;84.30;101719.47;4894407;29;1709;-79
2022/11/12 12:06:38;;;;;;;;;;;;;;;10.01;84.27;101722.16;4895361;29;2039;-78
2022/11/12 12:09:04;;;;;;;;;;;;;;;10.03;84.34;101722.00;4910081;29;1743;-81
2022/11/12 12:11:31;;;;;;;;;;;;;;;10.03;84.31;101724.69;4897908;29;1796;-80
2022/11/12 12:13:57;;;;;;;;;;;;;;;10.04;84.49;101729.03;4882811;29;1968;-77
2022/11/12 12:16:24;;;;;;;;;;;;;;;10.05;84.38;101724.47;4880397;29;1839;-79
2022/11/12 12:18:51;;;;;;;;;;;;;;;10.06;84.46;101736.91;4888019;29;1649;-78
2022/11/12 12:21:17;;;;;;;;;;;;;;;10.08;84.40;101740.25;4878699;29;1495;-79
2022/11/12 12:23:45;;;;;;;;;;;;;;;11.55;73.54;101735.28;4867573;29;1847;-80
2022/11/12 12:26:12;;;;;;;;;;;;;;;11.27;75.81;101733.44;4879778;29;1496;-84
2022/11/12 12:28:41;;;;;;;;;;;;;;;10.78;78.07;101731.56;4884861;29;1542;-80
2022/11/12 12:31:09;;;;;;;;;;;;;;;10.55;79.43;101739.81;4879576;29;2026;-82
2022/11/12 12:33:37;;;;;;;;;;;;;;;10.46;80.52;101739.09;4885597;29;1801;-82
2022/11/12 12:36:05;;;;;;;;;;;;;;;10.42;81.07;101737.81;4882697;29;3019;-82
2022/11/12 12:38:32;;;;;;;;;;;;;;;10.41;81.48;101738.84;4859886;29;1512;-80
2022/11/12 12:41:00;;;;;;;;;;;;;;;10.41;81.88;101744.22;4876719;29;1980;-80
2022/11/12 12:43:27;;;;;;;;;;;;;;;10.42;81.94;101753.13;4867828;29;1569;-80
2022/11/12 12:45:53;;;;;;;;;;;;;;;10.42;82.29;101759.34;4869558;29;1542;-79
2022/11/12 12:48:20;;;;;;;;;;;;;;;10.42;82.52;101763.91;4854464;29;1496;-80
2022/11/12 12:50:47;;;;;;;;;;;;;;;10.42;82.75;101761.22;4850230;29;1957;-81
2022/11/12 12:53:13;;;;;;;;;;;;;;;10.43;83.09;101761.00;4867561;29;1616;-82
2022/11/12 12:55:44;;;;;;;;;;;;;;;10.43;83.64;101763.72;4871241;29;1911;-81
2022/11/12 12:58:11;;;;;;;;;;;;;;;10.43;83.44;101761.00;4869706;29;1505;-82
2022/11/12 13:00:37;;;;;;;;;;;;;;;10.43;83.31;101755.63;4852253;29;2024;-83
2022/11/12 13:03:04;;;;;;;;;;;;;;;10.45;83.61;101760.84;4851291;29;1433;-83
2022/11/12 13:05:31;;;;;;;;;;;;;;;10.46;83.83;101766.03;4868424;29;1565;-82
2022/11/12 13:07:58;;;;;;;;;;;;;;;10.46;83.84;101760.63;4864922;29;1570;-79
2022/11/12 13:10:29;;;;;;;;;;;;;;;10.47;83.95;101766.88;4847398;29;4853;-82
2022/11/12 13:12:56;;;;;;;;;;;;;;;10.49;83.95;101766.69;4867173;29;1769;-81
2022/11/12 13:15:24;;;;;;;;;;;;;;;10.49;84.27;101772.06;4868737;29;1966;-81
2022/11/12 13:17:51;;;;;;;;;;;;;;;10.51;84.07;101787.00;4869136;29;1658;-82
2022/11/12 13:20:19;;;;;;;;;;;;;;;10.52;84.06;101788.69;4849578;29;1682;-82
2022/11/12 13:22:45;;;;;;;;;;;;;;;10.53;84.32;101784.13;4866783;29;1944;-81
2022/11/12 13:25:12;;;;;;;;;;;;;;;10.54;84.44;101783.09;4867923;29;1925;-82
2022/11/12 13:27:41;;;;;;;;;;;;;;;10.54;84.44;101786.63;4879919;29;4112;-82
2022/11/12 13:30:07;;;;;;;;;;;;;;;10.56;84.57;101789.13;4876657;29;1905;-82